Sunday, May 29, 2016, 5:31 AM EDT

KDOV, Dover Air Force Base

Location: Dover, DE, United States Lat: 39.133
Local Time: 5:31 AM EDT ( 9:31 GMT) Lon: -75.467
Time Zone: US/Eastern Elev: 29 ft

Show me the last for .
Show Decoded

2016-05-29 04:58 METAR KDOV 290858Z AUTO 13002KT 10SM CLR 17/17 A3013 =
2016-05-29 03:58 METAR KDOV 290758Z AUTO 18004KT 10SM CLR 18/18 A3013 RMK AO2 SLP206 T01780178
                 VISNO RWY19 CHINO RWY19 $ =
2016-05-29 02:58 METAR KDOV 290658Z AUTO 17004KT 10SM CLR 18/18 A3014 =
2016-05-29 01:58 METAR KDOV 290558Z AUTO 18005KT 10SM CLR 19/17 A3014 =
2016-05-29 00:58 METAR KDOV 290458Z AUTO 18006KT 10SM CLR 20/15 A3015 RMK AO2 SLP213 T01990154
                 403190199 VISNO RWY19 CHINO RWY19 $ =
2016-05-28 23:58 METAR KDOV 290358Z AUTO 18007KT 10SM CLR 21/14 A3016 RMK AO2 SLP216 T02090141
                 VISNO RWY19 CHINO RWY19 $ =
2016-05-28 22:58 METAR KDOV 290258Z AUTO 17006KT 10SM CLR 22/17 A3015 RMK AO2 SLP213 T02230168
                 51013 VISNO RWY19 CHINO RWY19 $ =
2016-05-28 21:58 METAR KDOV 290158Z AUTO 17006KT 10SM CLR 24/19 A3015 =
2016-05-28 20:58 METAR KDOV 290058Z AUTO 20006KT 10SM CLR 26/20 A3013 =
2016-05-28 19:58 METAR KDOV 282358Z AUTO 21006KT 10SM CLR 28/20 A3011 =
2016-05-28 18:58 METAR KDOV 282258Z AUTO 22007KT 10SM CLR 30/20 A3011 RMK AO2 SLP199 T02960200
                 VISNO RWY19 CHINO RWY19 $ =
2016-05-28 17:58 METAR KDOV 282158Z AUTO 22010KT 10SM CLR 31/21 A3010 =
2016-05-28 16:58 METAR KDOV 282058Z AUTO 19009KT 10SM CLR 32/21 A3010 RMK AO2 SLP196 T03160206
                 58010 VISNO RWY19 CHINO RWY19 $ =
2016-05-28 15:58 METAR KDOV 281958Z AUTO 17011KT 10SM CLR 32/21 A3012 =
2016-05-28 14:58 METAR KDOV 281858Z AUTO 19010KT 10SM FEW050 32/22 A3013 =
2016-05-28 13:58 METAR KDOV 281758Z AUTO 16007KT 10SM CLR 31/22 A3013 RMK AO2 SLP206 T03140216
                 10314 20226 58009 VISNO RWY19 CHINO RWY19 $ =
2016-05-28 12:58 METAR KDOV 281658Z AUTO 21008KT 10SM CLR 31/21 A3015 RMK AO2 SLP213 T03050211
                 VISNO RWY19 CHINO RWY19 $ =
2016-05-28 11:58 METAR KDOV 281558Z AUTO 19007KT 10SM CLR 29/21 A3016 =
2016-05-28 10:58 METAR KDOV 281458Z AUTO 22005KT 10SM CLR 28/20 A3016 RMK AO2 SLP216 T02760200
                 50008 VISNO RWY19 CHINO RWY19 $ =
2016-05-28 09:58 METAR KDOV 281358Z AUTO 19006KT 10SM CLR 26/19 A3017 RMK AO2 SLP220 T02600193
                 VISNO RWY19 CHINO RWY19 $ =
2016-05-28 08:58 METAR KDOV 281258Z AUTO 22005KT 10SM CLR 24/19 A3016 RMK AO2 SLP216 T02420188
                 VISNO RWY19 CHINO RWY19 $ =
2016-05-28 07:58 METAR KDOV 281158Z AUTO 20008KT 10SM CLR 22/19 A3014 RMK AO2 SLP209 T02240191
                 10224 20204 51009 VISNO RWY19 CHINO RWY19 $ =
2016-05-28 06:59 METAR KDOV 281059Z AUTO 20008KT 10SM CLR 21/20 A3014 RMK AO2 SLP209 T02070198
                 VISNO RWY19 CHINO RWY19 $ =
2016-05-28 05:58 METAR KDOV 280958Z AUTO 20008KT 10SM CLR 21/20 A3013 =

Support USWX by starting your Amazon purchase here.